sensor_id;sensor_type;location;lat;lon;timestamp;temperature;humidity
13682;DHT22;6913;49.892;7.936;2023-05-20T00:01:32;15.40;1.00
13682;DHT22;6913;49.892;7.936;2023-05-20T00:03:59;15.40;1.00
13682;DHT22;6913;49.892;7.936;2023-05-20T00:06:26;15.40;1.00
13682;DHT22;6913;49.892;7.936;2023-05-20T00:08:52;15.30;1.00
13682;DHT22;6913;49.892;7.936;2023-05-20T00:11:21;15.30;1.00
13682;DHT22;6913;49.892;7.936;2023-05-20T00:13:48;15.30;1.00
13682;DHT22;6913;49.892;7.936;2023-05-20T00:16:15;15.20;1.00
13682;DHT22;6913;49.892;7.936;2023-05-20T00:18:41;15.20;1.00
13682;DHT22;6913;49.892;7.936;2023-05-20T00:21:08;15.20;1.00
13682;DHT22;6913;49.892;7.936;2023-05-20T00:23:35;15.20;1.00
13682;DHT22;6913;49.892;7.936;2023-05-20T00:26:03;15.50;1.00
13682;DHT22;6913;49.892;7.936;2023-05-20T00:28:31;15.20;1.00
13682;DHT22;6913;49.892;7.936;2023-05-20T00:30:57;15.20;1.00
13682;DHT22;6913;49.892;7.936;2023-05-20T00:33:24;15.10;1.00
13682;DHT22;6913;49.892;7.936;2023-05-20T00:35:51;15.30;1.00
13682;DHT22;6913;49.892;7.936;2023-05-20T00:38:18;15.30;1.00
13682;DHT22;6913;49.892;7.936;2023-05-20T00:40:44;15.00;1.00
13682;DHT22;6913;49.892;7.936;2023-05-20T00:43:11;14.90;1.00
13682;DHT22;6913;49.892;7.936;2023-05-20T00:45:39;14.90;1.00
13682;DHT22;6913;49.892;7.936;2023-05-20T00:48:07;14.90;1.00
13682;DHT22;6913;49.892;7.936;2023-05-20T00:50:34;14.80;1.00
13682;DHT22;6913;49.892;7.936;2023-05-20T00:53:01;14.90;1.00
13682;DHT22;6913;49.892;7.936;2023-05-20T00:55:28;14.80;1.00
13682;DHT22;6913;49.892;7.936;2023-05-20T00:57:55;14.80;1.00
13682;DHT22;6913;49.892;7.936;2023-05-20T01:00:22;14.70;1.00
13682;DHT22;6913;49.892;7.936;2023-05-20T01:02:50;14.70;1.00
13682;DHT22;6913;49.892;7.936;2023-05-20T01:05:17;14.70;1.00
13682;DHT22;6913;49.892;7.936;2023-05-20T01:07:44;14.70;1.00
13682;DHT22;6913;49.892;7.936;2023-05-20T01:10:11;14.70;1.00
13682;DHT22;6913;49.892;7.936;2023-05-20T01:12:40;14.70;1.00
13682;DHT22;6913;49.892;7.936;2023-05-20T01:15:10;14.80;1.00
13682;DHT22;6913;49.892;7.936;2023-05-20T01:17:45;14.80;1.00
13682;DHT22;6913;49.892;7.936;2023-05-20T01:20:14;14.80;1.00
13682;DHT22;6913;49.892;7.936;2023-05-20T01:22:48;14.80;1.00
13682;DHT22;6913;49.892;7.936;2023-05-20T01:25:14;14.70;1.00
13682;DHT22;6913;49.892;7.936;2023-05-20T01:27:41;14.60;1.00
13682;DHT22;6913;49.892;7.936;2023-05-20T01:30:09;14.60;1.00
13682;DHT22;6913;49.892;7.936;2023-05-20T01:32:38;14.50;1.00
13682;DHT22;6913;49.892;7.936;2023-05-20T01:35:07;14.50;1.00
13682;DHT22;6913;49.892;7.936;2023-05-20T01:37:37;14.50;1.00
13682;DHT22;6913;49.892;7.936;2023-05-20T01:40:08;14.50;1.00
13682;DHT22;6913;49.892;7.936;2023-05-20T01:42:35;14.50;1.00
13682;DHT22;6913;49.892;7.936;2023-05-20T01:45:03;14.40;1.00
13682;DHT22;6913;49.892;7.936;2023-05-20T01:47:30;14.40;1.00
13682;DHT22;6913;49.892;7.936;2023-05-20T01:49:57;14.40;1.00
13682;DHT22;6913;49.892;7.936;2023-05-20T01:52:24;14.50;1.00
13682;DHT22;6913;49.892;7.936;2023-05-20T01:54:51;14.40;1.00
13682;DHT22;6913;49.892;7.936;2023-05-20T01:57:20;14.40;1.00
13682;DHT22;6913;49.892;7.936;2023-05-20T01:59:47;14.50;1.00
13682;DHT22;6913;49.892;7.936;2023-05-20T02:02:14;14.40;1.00
13682;DHT22;6913;49.892;7.936;2023-05-20T02:04:42;14.40;1.00
13682;DHT22;6913;49.892;7.936;2023-05-20T02:07:12;14.30;1.00
13682;DHT22;6913;49.892;7.936;2023-05-20T02:09:39;14.30;1.00
13682;DHT22;6913;49.892;7.936;2023-05-20T02:12:07;14.20;1.00
13682;DHT22;6913;49.892;7.936;2023-05-20T02:14:35;14.20;1.00
13682;DHT22;6913;49.892;7.936;2023-05-20T02:17:02;14.20;1.00
13682;DHT22;6913;49.892;7.936;2023-05-20T02:19:29;14.20;1.00
13682;DHT22;6913;49.892;7.936;2023-05-20T02:21:56;14.10;1.00
13682;DHT22;6913;49.892;7.936;2023-05-20T02:24:23;14.10;1.00
13682;DHT22;6913;49.892;7.936;2023-05-20T02:26:50;14.00;1.00
13682;DHT22;6913;49.892;7.936;2023-05-20T02:29:18;14.00;1.00
13682;DHT22;6913;49.892;7.936;2023-05-20T02:31:48;13.90;1.00
13682;DHT22;6913;49.892;7.936;2023-05-20T02:34:16;13.90;1.00
13682;DHT22;6913;49.892;7.936;2023-05-20T02:36:43;13.70;38.40
13682;DHT22;6913;49.892;7.936;2023-05-20T02:39:09;13.60;40.90
13682;DHT22;6913;49.892;7.936;2023-05-20T02:41:37;13.60;53.30
13682;DHT22;6913;49.892;7.936;2023-05-20T02:44:04;13.50;51.50
13682;DHT22;6913;49.892;7.936;2023-05-20T02:46:31;13.40;52.60
13682;DHT22;6913;49.892;7.936;2023-05-20T02:49:00;13.30;59.10
13682;DHT22;6913;49.892;7.936;2023-05-20T02:51:26;13.20;73.00
13682;DHT22;6913;49.892;7.936;2023-05-20T02:53:53;13.20;68.40
13682;DHT22;6913;49.892;7.936;2023-05-20T02:56:20;13.10;71.00
13682;DHT22;6913;49.892;7.936;2023-05-20T02:58:47;13.10;66.10
13682;DHT22;6913;49.892;7.936;2023-05-20T03:01:14;13.00;70.60
13682;DHT22;6913;49.892;7.936;2023-05-20T03:03:41;13.00;75.50
13682;DHT22;6913;49.892;7.936;2023-05-20T03:06:09;12.90;86.70
13682;DHT22;6913;49.892;7.936;2023-05-20T03:08:37;12.90;93.40
13682;DHT22;6913;49.892;7.936;2023-05-20T03:11:07;12.70;95.00
13682;DHT22;6913;49.892;7.936;2023-05-20T03:13:34;12.70;99.90
13682;DHT22;6913;49.892;7.936;2023-05-20T03:16:01;12.50;99.90
13682;DHT22;6913;49.892;7.936;2023-05-20T03:18:28;12.40;99.90
13682;DHT22;6913;49.892;7.936;2023-05-20T03:20:55;12.50;99.90
13682;DHT22;6913;49.892;7.936;2023-05-20T03:23:23;12.50;99.90
13682;DHT22;6913;49.892;7.936;2023-05-20T03:25:50;12.50;99.90
13682;DHT22;6913;49.892;7.936;2023-05-20T03:28:17;12.50;99.90
13682;DHT22;6913;49.892;7.936;2023-05-20T03:30:44;12.40;99.90
13682;DHT22;6913;49.892;7.936;2023-05-20T03:33:11;12.50;99.90
13682;DHT22;6913;49.892;7.936;2023-05-20T03:35:39;12.40;99.90
13682;DHT22;6913;49.892;7.936;2023-05-20T03:38:05;12.50;99.90
13682;DHT22;6913;49.892;7.936;2023-05-20T03:40:34;12.50;99.90
13682;DHT22;6913;49.892;7.936;2023-05-20T03:43:01;12.50;99.90
13682;DHT22;6913;49.892;7.936;2023-05-20T03:45:27;12.50;99.90
13682;DHT22;6913;49.892;7.936;2023-05-20T03:47:55;12.50;99.90
13682;DHT22;6913;49.892;7.936;2023-05-20T03:50:21;12.50;99.90
13682;DHT22;6913;49.892;7.936;2023-05-20T03:52:48;12.50;99.90
13682;DHT22;6913;49.892;7.936;2023-05-20T03:55:15;12.60;99.90
13682;DHT22;6913;49.892;7.936;2023-05-20T03:57:46;12.60;99.90
13682;DHT22;6913;49.892;7.936;2023-05-20T04:00:13;12.60;99.90
13682;DHT22;6913;49.892;7.936;2023-05-20T04:02:41;12.60;99.90
13682;DHT22;6913;49.892;7.936;2023-05-20T04:05:08;12.60;99.90
13682;DHT22;6913;49.892;7.936;2023-05-20T04:07:36;12.60;99.90
13682;DHT22;6913;49.892;7.936;2023-05-20T04:10:03;12.70;99.90
13682;DHT22;6913;49.892;7.936;2023-05-20T04:12:31;12.70;99.90
13682;DHT22;6913;49.892;7.936;2023-05-20T04:15:02;12.70;99.90
13682;DHT22;6913;49.892;7.936;2023-05-20T04:17:29;12.70;99.90
13682;DHT22;6913;49.892;7.936;2023-05-20T04:19:57;12.80;99.90
13682;DHT22;6913;49.892;7.936;2023-05-20T04:22:24;12.90;99.90
13682;DHT22;6913;49.892;7.936;2023-05-20T04:24:51;13.00;99.90
13682;DHT22;6913;49.892;7.936;2023-05-20T04:27:18;13.00;99.90
13682;DHT22;6913;49.892;7.936;2023-05-20T04:29:45;13.00;99.90
13682;DHT22;6913;49.892;7.936;2023-05-20T04:32:17;13.00;99.90
13682;DHT22;6913;49.892;7.936;2023-05-20T04:34:44;13.00;99.90
13682;DHT22;6913;49.892;7.936;2023-05-20T04:37:13;13.10;99.90
13682;DHT22;6913;49.892;7.936;2023-05-20T04:39:40;13.10;99.90
13682;DHT22;6913;49.892;7.936;2023-05-20T04:42:08;13.20;99.90
13682;DHT22;6913;49.892;7.936;2023-05-20T04:44:35;13.30;99.90
13682;DHT22;6913;49.892;7.936;2023-05-20T04:47:02;13.30;99.90
13682;DHT22;6913;49.892;7.936;2023-05-20T04:49:30;13.40;99.90
13682;DHT22;6913;49.892;7.936;2023-05-20T04:51:57;13.50;99.90
13682;DHT22;6913;49.892;7.936;2023-05-20T04:54:25;13.60;99.90
13682;DHT22;6913;49.892;7.936;2023-05-20T04:56:52;13.70;99.90
13682;DHT22;6913;49.892;7.936;2023-05-20T04:59:19;13.80;99.90
13682;DHT22;6913;49.892;7.936;2023-05-20T05:01:46;13.90;99.90
13682;DHT22;6913;49.892;7.936;2023-05-20T05:04:12;14.10;96.60
13682;DHT22;6913;49.892;7.936;2023-05-20T05:06:41;14.30;97.70
13682;DHT22;6913;49.892;7.936;2023-05-20T05:09:08;14.60;93.00
13682;DHT22;6913;49.892;7.936;2023-05-20T05:11:35;14.80;93.40
13682;DHT22;6913;49.892;7.936;2023-05-20T05:14:02;15.00;60.70
13682;DHT22;6913;49.892;7.936;2023-05-20T05:16:29;15.20;42.80
13682;DHT22;6913;49.892;7.936;2023-05-20T05:18:55;15.50;29.10
13682;DHT22;6913;49.892;7.936;2023-05-20T05:21:22;15.80;50.40
13682;DHT22;6913;49.892;7.936;2023-05-20T05:23:51;15.90;56.40
13682;DHT22;6913;49.892;7.936;2023-05-20T05:26:18;16.10;30.10
13682;DHT22;6913;49.892;7.936;2023-05-20T05:28:45;16.10;21.00
13682;DHT22;6913;49.892;7.936;2023-05-20T05:31:12;16.20;23.70
13682;DHT22;6913;49.892;7.936;2023-05-20T05:33:39;16.20;28.40
13682;DHT22;6913;49.892;7.936;2023-05-20T05:36:06;15.90;29.30
13682;DHT22;6913;49.892;7.936;2023-05-20T05:38:33;15.90;44.90
13682;DHT22;6913;49.892;7.936;2023-05-20T05:41:01;15.80;56.20
13682;DHT22;6913;49.892;7.936;2023-05-20T05:43:28;16.00;33.70
13682;DHT22;6913;49.892;7.936;2023-05-20T05:45:55;16.00;32.50
13682;DHT22;6913;49.892;7.936;2023-05-20T05:48:22;15.90;36.60
13682;DHT22;6913;49.892;7.936;2023-05-20T05:50:49;15.80;35.80
13682;DHT22;6913;49.892;7.936;2023-05-20T05:53:15;15.90;24.70
13682;DHT22;6913;49.892;7.936;2023-05-20T05:55:42;15.70;52.50
13682;DHT22;6913;49.892;7.936;2023-05-20T05:58:12;15.80;56.80
13682;DHT22;6913;49.892;7.936;2023-05-20T06:00:39;15.90;58.60
13682;DHT22;6913;49.892;7.936;2023-05-20T06:03:06;15.80;45.40
13682;DHT22;6913;49.892;7.936;2023-05-20T06:05:33;15.90;66.70
13682;DHT22;6913;49.892;7.936;2023-05-20T06:08:00;15.80;67.50
13682;DHT22;6913;49.892;7.936;2023-05-20T06:10:27;15.80;68.20
13682;DHT22;6913;49.892;7.936;2023-05-20T06:12:54;15.90;71.40
13682;DHT22;6913;49.892;7.936;2023-05-20T06:15:22;15.90;62.20
13682;DHT22;6913;49.892;7.936;2023-05-20T06:17:49;15.80;70.70
13682;DHT22;6913;49.892;7.936;2023-05-20T06:20:16;15.80;65.10
13682;DHT22;6913;49.892;7.936;2023-05-20T06:22:43;16.00;66.30
13682;DHT22;6913;49.892;7.936;2023-05-20T06:25:10;16.50;62.80
13682;DHT22;6913;49.892;7.936;2023-05-20T06:27:37;17.40;17.70
13682;DHT22;6913;49.892;7.936;2023-05-20T06:30:04;18.30;10.40
13682;DHT22;6913;49.892;7.936;2023-05-20T06:32:33;18.70;1.00
13682;DHT22;6913;49.892;7.936;2023-05-20T06:35:00;18.90;1.00
13682;DHT22;6913;49.892;7.936;2023-05-20T06:37:27;19.10;1.00
13682;DHT22;6913;49.892;7.936;2023-05-20T06:39:54;19.00;1.50
13682;DHT22;6913;49.892;7.936;2023-05-20T06:42:21;19.20;1.00
13682;DHT22;6913;49.892;7.936;2023-05-20T06:44:47;19.60;1.00
13682;DHT22;6913;49.892;7.936;2023-05-20T06:47:16;19.70;1.00
13682;DHT22;6913;49.892;7.936;2023-05-20T06:49:44;20.00;1.00
13682;DHT22;6913;49.892;7.936;2023-05-20T06:52:11;19.90;1.00
13682;DHT22;6913;49.892;7.936;2023-05-20T06:54:38;20.20;1.00
13682;DHT22;6913;49.892;7.936;2023-05-20T06:57:06;20.30;1.00
13682;DHT22;6913;49.892;7.936;2023-05-20T06:59:33;20.50;1.00
13682;DHT22;6913;49.892;7.936;2023-05-20T07:02:00;20.00;1.00
13682;DHT22;6913;49.892;7.936;2023-05-20T07:04:27;20.30;1.00
13682;DHT22;6913;49.892;7.936;2023-05-20T07:06:56;19.70;1.00
13682;DHT22;6913;49.892;7.936;2023-05-20T07:09:23;18.60;1.00
13682;DHT22;6913;49.892;7.936;2023-05-20T07:11:50;19.50;1.00
13682;DHT22;6913;49.892;7.936;2023-05-20T07:14:17;18.60;1.00
13682;DHT22;6913;49.892;7.936;2023-05-20T07:16:43;18.40;15.80
13682;DHT22;6913;49.892;7.936;2023-05-20T07:19:10;18.30;32.20
13682;DHT22;6913;49.892;7.936;2023-05-20T07:21:37;18.20;2.00
13682;DHT22;6913;49.892;7.936;2023-05-20T07:24:06;17.60;27.40
13682;DHT22;6913;49.892;7.936;2023-05-20T07:26:33;17.50;64.80
13682;DHT22;6913;49.892;7.936;2023-05-20T07:29:01;18.00;1.00
13682;DHT22;6913;49.892;7.936;2023-05-20T07:31:28;18.60;1.00
13682;DHT22;6913;49.892;7.936;2023-05-20T07:33:56;18.80;1.00
13682;DHT22;6913;49.892;7.936;2023-05-20T07:36:24;18.80;1.00
13682;DHT22;6913;49.892;7.936;2023-05-20T07:38:51;18.20;1.00
13682;DHT22;6913;49.892;7.936;2023-05-20T07:41:20;18.70;1.00
13682;DHT22;6913;49.892;7.936;2023-05-20T07:43:47;19.00;1.00
13682;DHT22;6913;49.892;7.936;2023-05-20T07:46:14;19.50;1.00
13682;DHT22;6913;49.892;7.936;2023-05-20T07:48:42;19.30;1.00
13682;DHT22;6913;49.892;7.936;2023-05-20T07:51:09;19.10;10.70
13682;DHT22;6913;49.892;7.936;2023-05-20T07:53:36;19.50;1.00
13682;DHT22;6913;49.892;7.936;2023-05-20T07:56:04;19.20;1.00
13682;DHT22;6913;49.892;7.936;2023-05-20T07:58:32;19.60;1.00
13682;DHT22;6913;49.892;7.936;2023-05-20T08:00:59;18.70;1.00
13682;DHT22;6913;49.892;7.936;2023-05-20T08:03:26;17.90;28.60
13682;DHT22;6913;49.892;7.936;2023-05-20T08:05:53;18.30;3.70
13682;DHT22;6913;49.892;7.936;2023-05-20T08:08:20;18.50;22.90
13682;DHT22;6913;49.892;7.936;2023-05-20T08:10:47;18.40;1.00
13682;DHT22;6913;49.892;7.936;2023-05-20T08:13:14;17.50;6.50
13682;DHT22;6913;49.892;7.936;2023-05-20T08:15:42;17.30;8.40
13682;DHT22;6913;49.892;7.936;2023-05-20T08:18:09;17.50;52.70
13682;DHT22;6913;49.892;7.936;2023-05-20T08:20:36;17.60;5.40
13682;DHT22;6913;49.892;7.936;2023-05-20T08:23:03;17.30;48.30
13682;DHT22;6913;49.892;7.936;2023-05-20T08:25:30;17.40;57.30
13682;DHT22;6913;49.892;7.936;2023-05-20T08:27:57;17.20;43.30
13682;DHT22;6913;49.892;7.936;2023-05-20T08:30:26;17.30;63.30
13682;DHT22;6913;49.892;7.936;2023-05-20T08:32:55;17.50;49.00
13682;DHT22;6913;49.892;7.936;2023-05-20T08:35:21;17.50;50.20
13682;DHT22;6913;49.892;7.936;2023-05-20T08:37:49;17.60;64.30
13682;DHT22;6913;49.892;7.936;2023-05-20T08:40:15;17.50;57.40
13682;DHT22;6913;49.892;7.936;2023-05-20T08:42:43;17.60;48.90
13682;DHT22;6913;49.892;7.936;2023-05-20T08:45:10;17.50;43.50
13682;DHT22;6913;49.892;7.936;2023-05-20T08:47:40;17.60;72.40
13682;DHT22;6913;49.892;7.936;2023-05-20T08:50:10;18.30;51.80
13682;DHT22;6913;49.892;7.936;2023-05-20T08:52:42;18.20;8.50
13682;DHT22;6913;49.892;7.936;2023-05-20T08:55:13;17.80;48.00
13682;DHT22;6913;49.892;7.936;2023-05-20T08:57:41;17.80;44.00
13682;DHT22;6913;49.892;7.936;2023-05-20T09:00:11;17.70;31.60
13682;DHT22;6913;49.892;7.936;2023-05-20T09:02:41;17.70;23.50
13682;DHT22;6913;49.892;7.936;2023-05-20T09:05:11;17.50;59.60
13682;DHT22;6913;49.892;7.936;2023-05-20T09:07:38;17.50;57.10
13682;DHT22;6913;49.892;7.936;2023-05-20T09:10:07;17.60;27.30
13682;DHT22;6913;49.892;7.936;2023-05-20T09:12:35;17.60;41.30
13682;DHT22;6913;49.892;7.936;2023-05-20T09:15:03;17.60;52.20
13682;DHT22;6913;49.892;7.936;2023-05-20T09:17:31;17.90;98.00
13682;DHT22;6913;49.892;7.936;2023-05-20T09:19:58;17.90;42.00
13682;DHT22;6913;49.892;7.936;2023-05-20T09:22:27;17.80;47.50
13682;DHT22;6913;49.892;7.936;2023-05-20T09:24:54;17.80;53.30
13682;DHT22;6913;49.892;7.936;2023-05-20T09:27:21;17.70;34.20
13682;DHT22;6913;49.892;7.936;2023-05-20T09:29:49;18.00;36.30
13682;DHT22;6913;49.892;7.936;2023-05-20T09:32:19;18.00;43.60
13682;DHT22;6913;49.892;7.936;2023-05-20T09:34:48;17.90;31.40
13682;DHT22;6913;49.892;7.936;2023-05-20T09:37:17;18.40;32.70
13682;DHT22;6913;49.892;7.936;2023-05-20T09:39:53;18.30;27.30
13682;DHT22;6913;49.892;7.936;2023-05-20T09:42:26;18.90;54.00
13682;DHT22;6913;49.892;7.936;2023-05-20T09:44:54;19.70;8.10
13682;DHT22;6913;49.892;7.936;2023-05-20T09:47:22;19.60;1.00
13682;DHT22;6913;49.892;7.936;2023-05-20T09:49:51;19.30;1.00
13682;DHT22;6913;49.892;7.936;2023-05-20T09:52:18;19.20;18.60
13682;DHT22;6913;49.892;7.936;2023-05-20T09:54:47;19.30;45.60
13682;DHT22;6913;49.892;7.936;2023-05-20T09:57:15;19.60;55.40
13682;DHT22;6913;49.892;7.936;2023-05-20T09:59:43;20.10;1.00
13682;DHT22;6913;49.892;7.936;2023-05-20T10:02:11;19.70;15.00
13682;DHT22;6913;49.892;7.936;2023-05-20T10:04:46;19.70;5.60
13682;DHT22;6913;49.892;7.936;2023-05-20T10:07:34;20.30;1.00
13682;DHT22;6913;49.892;7.936;2023-05-20T10:10:16;20.00;1.00
13682;DHT22;6913;49.892;7.936;2023-05-20T10:12:50;19.70;1.00
13682;DHT22;6913;49.892;7.936;2023-05-20T10:15:25;18.90;1.00
13682;DHT22;6913;49.892;7.936;2023-05-20T10:18:14;19.50;33.90
13682;DHT22;6913;49.892;7.936;2023-05-20T10:20:46;19.50;18.70
13682;DHT22;6913;49.892;7.936;2023-05-20T10:23:20;19.40;17.40
13682;DHT22;6913;49.892;7.936;2023-05-20T10:25:53;19.80;4.50
13682;DHT22;6913;49.892;7.936;2023-05-20T10:28:31;20.40;1.00
13682;DHT22;6913;49.892;7.936;2023-05-20T10:30:59;20.80;1.00
13682;DHT22;6913;49.892;7.936;2023-05-20T10:33:26;19.90;1.00
13682;DHT22;6913;49.892;7.936;2023-05-20T10:35:56;19.80;7.80
13682;DHT22;6913;49.892;7.936;2023-05-20T10:38:24;20.30;1.00
13682;DHT22;6913;49.892;7.936;2023-05-20T10:40:52;20.30;1.00
13682;DHT22;6913;49.892;7.936;2023-05-20T10:43:25;20.40;1.00
13682;DHT22;6913;49.892;7.936;2023-05-20T10:45:54;21.00;1.00
13682;DHT22;6913;49.892;7.936;2023-05-20T10:48:26;20.90;1.00
13682;DHT22;6913;49.892;7.936;2023-05-20T10:50:54;20.70;1.00
13682;DHT22;6913;49.892;7.936;2023-05-20T10:53:23;21.30;1.00
13682;DHT22;6913;49.892;7.936;2023-05-20T10:55:53;21.50;1.00
13682;DHT22;6913;49.892;7.936;2023-05-20T10:58:21;21.30;1.00
13682;DHT22;6913;49.892;7.936;2023-05-20T11:00:52;21.40;1.00
13682;DHT22;6913;49.892;7.936;2023-05-20T11:03:20;21.20;1.00
13682;DHT22;6913;49.892;7.936;2023-05-20T11:05:48;20.80;1.00
13682;DHT22;6913;49.892;7.936;2023-05-20T11:08:16;20.80;1.00
13682;DHT22;6913;49.892;7.936;2023-05-20T11:10:42;21.70;1.00
13682;DHT22;6913;49.892;7.936;2023-05-20T11:13:12;21.40;1.00
13682;DHT22;6913;49.892;7.936;2023-05-20T11:15:40;20.80;1.00
13682;DHT22;6913;49.892;7.936;2023-05-20T11:18:10;20.10;1.00
13682;DHT22;6913;49.892;7.936;2023-05-20T11:20:39;20.10;1.00
13682;DHT22;6913;49.892;7.936;2023-05-20T11:23:10;20.40;1.00
13682;DHT22;6913;49.892;7.936;2023-05-20T11:25:37;20.80;1.00
13682;DHT22;6913;49.892;7.936;2023-05-20T11:28:08;21.10;1.00
13682;DHT22;6913;49.892;7.936;2023-05-20T11:30:37;21.10;1.00
13682;DHT22;6913;49.892;7.936;2023-05-20T11:33:04;20.70;1.00
13682;DHT22;6913;49.892;7.936;2023-05-20T11:35:31;20.50;1.00
13682;DHT22;6913;49.892;7.936;2023-05-20T11:38:01;20.80;1.00
13682;DHT22;6913;49.892;7.936;2023-05-20T11:40:29;20.80;1.00
13682;DHT22;6913;49.892;7.936;2023-05-20T11:42:58;21.40;1.00
13682;DHT22;6913;49.892;7.936;2023-05-20T11:45:25;20.90;1.00
13682;DHT22;6913;49.892;7.936;2023-05-20T11:48:01;19.90;1.00
13682;DHT22;6913;49.892;7.936;2023-05-20T11:50:33;19.90;1.00
13682;DHT22;6913;49.892;7.936;2023-05-20T11:53:02;20.10;1.00
13682;DHT22;6913;49.892;7.936;2023-05-20T11:55:30;21.40;1.00
13682;DHT22;6913;49.892;7.936;2023-05-20T11:57:57;21.20;1.00
13682;DHT22;6913;49.892;7.936;2023-05-20T12:00:25;20.80;1.00
13682;DHT22;6913;49.892;7.936;2023-05-20T12:02:52;21.40;1.00
13682;DHT22;6913;49.892;7.936;2023-05-20T12:05:20;21.80;1.00
13682;DHT22;6913;49.892;7.936;2023-05-20T12:07:47;22.50;1.00
13682;DHT22;6913;49.892;7.936;2023-05-20T12:10:14;22.60;1.00
13682;DHT22;6913;49.892;7.936;2023-05-20T12:12:41;21.40;1.00
13682;DHT22;6913;49.892;7.936;2023-05-20T12:15:10;21.40;1.00
13682;DHT22;6913;49.892;7.936;2023-05-20T12:17:47;21.50;1.00
13682;DHT22;6913;49.892;7.936;2023-05-20T12:20:15;21.60;1.00
13682;DHT22;6913;49.892;7.936;2023-05-20T12:22:44;21.50;1.00
13682;DHT22;6913;49.892;7.936;2023-05-20T12:25:12;21.50;1.00
13682;DHT22;6913;49.892;7.936;2023-05-20T12:27:40;22.00;1.00
13682;DHT22;6913;49.892;7.936;2023-05-20T12:30:08;22.10;1.00
13682;DHT22;6913;49.892;7.936;2023-05-20T12:32:36;21.70;1.00
13682;DHT22;6913;49.892;7.936;2023-05-20T12:35:03;21.30;1.00
13682;DHT22;6913;49.892;7.936;2023-05-20T12:37:30;21.00;1.00
13682;DHT22;6913;49.892;7.936;2023-05-20T12:39:59;21.20;1.00
13682;DHT22;6913;49.892;7.936;2023-05-20T12:42:26;21.40;1.00
13682;DHT22;6913;49.892;7.936;2023-05-20T12:44:52;21.90;1.00
13682;DHT22;6913;49.892;7.936;2023-05-20T12:47:20;22.90;1.00
13682;DHT22;6913;49.892;7.936;2023-05-20T12:49:47;23.10;1.00
13682;DHT22;6913;49.892;7.936;2023-05-20T12:52:14;21.70;1.00
13682;DHT22;6913;49.892;7.936;2023-05-20T12:54:40;21.20;1.00
13682;DHT22;6913;49.892;7.936;2023-05-20T12:57:09;21.50;1.00
13682;DHT22;6913;49.892;7.936;2023-05-20T12:59:36;21.60;1.00
13682;DHT22;6913;49.892;7.936;2023-05-20T13:02:03;20.90;1.00
13682;DHT22;6913;49.892;7.936;2023-05-20T13:04:30;20.50;1.00
13682;DHT22;6913;49.892;7.936;2023-05-20T13:06:57;20.20;1.00
13682;DHT22;6913;49.892;7.936;2023-05-20T13:09:25;20.40;1.00
13682;DHT22;6913;49.892;7.936;2023-05-20T13:11:52;20.70;1.00
13682;DHT22;6913;49.892;7.936;2023-05-20T13:14:20;21.40;1.00
13682;DHT22;6913;49.892;7.936;2023-05-20T13:16:48;22.20;1.00
13682;DHT22;6913;49.892;7.936;2023-05-20T13:19:18;22.10;1.00
13682;DHT22;6913;49.892;7.936;2023-05-20T13:21:46;22.20;1.00
13682;DHT22;6913;49.892;7.936;2023-05-20T13:24:13;22.50;1.00
13682;DHT22;6913;49.892;7.936;2023-05-20T13:26:40;22.60;1.00
13682;DHT22;6913;49.892;7.936;2023-05-20T13:29:07;22.20;1.00
13682;DHT22;6913;49.892;7.936;2023-05-20T13:31:36;21.70;1.00
13682;DHT22;6913;49.892;7.936;2023-05-20T13:34:03;21.00;1.00
13682;DHT22;6913;49.892;7.936;2023-05-20T13:36:30;21.60;1.00
13682;DHT22;6913;49.892;7.936;2023-05-20T13:38:57;21.50;1.00
13682;DHT22;6913;49.892;7.936;2023-05-20T13:41:24;21.50;1.00
13682;DHT22;6913;49.892;7.936;2023-05-20T13:43:52;21.70;1.00
13682;DHT22;6913;49.892;7.936;2023-05-20T13:46:19;21.30;1.00
13682;DHT22;6913;49.892;7.936;2023-05-20T13:48:47;21.00;1.00
13682;DHT22;6913;49.892;7.936;2023-05-20T13:51:14;21.00;1.00
13682;DHT22;6913;49.892;7.936;2023-05-20T13:53:41;21.00;1.00
13682;DHT22;6913;49.892;7.936;2023-05-20T13:56:08;20.70;1.00
13682;DHT22;6913;49.892;7.936;2023-05-20T13:58:35;21.00;1.00
13682;DHT22;6913;49.892;7.936;2023-05-20T14:01:02;21.50;1.00
13682;DHT22;6913;49.892;7.936;2023-05-20T14:03:29;21.00;1.00
13682;DHT22;6913;49.892;7.936;2023-05-20T14:05:59;20.90;1.00
13682;DHT22;6913;49.892;7.936;2023-05-20T14:08:26;21.20;1.00
13682;DHT22;6913;49.892;7.936;2023-05-20T14:10:53;21.90;1.00
13682;DHT22;6913;49.892;7.936;2023-05-20T14:13:20;22.00;1.00
13682;DHT22;6913;49.892;7.936;2023-05-20T14:15:47;22.20;1.00
13682;DHT22;6913;49.892;7.936;2023-05-20T14:18:15;22.40;1.00
13682;DHT22;6913;49.892;7.936;2023-05-20T14:20:42;21.90;1.00
13682;DHT22;6913;49.892;7.936;2023-05-20T14:23:11;21.80;1.00
13682;DHT22;6913;49.892;7.936;2023-05-20T14:25:38;21.70;1.00
13682;DHT22;6913;49.892;7.936;2023-05-20T14:28:05;21.40;1.00
13682;DHT22;6913;49.892;7.936;2023-05-20T14:30:32;21.50;1.00
13682;DHT22;6913;49.892;7.936;2023-05-20T14:32:59;21.50;1.00
13682;DHT22;6913;49.892;7.936;2023-05-20T14:35:26;21.90;1.00
13682;DHT22;6913;49.892;7.936;2023-05-20T14:37:53;22.00;1.00
13682;DHT22;6913;49.892;7.936;2023-05-20T14:40:22;22.00;1.00
13682;DHT22;6913;49.892;7.936;2023-05-20T14:42:49;22.10;1.00
13682;DHT22;6913;49.892;7.936;2023-05-20T14:45:16;22.50;1.00
13682;DHT22;6913;49.892;7.936;2023-05-20T14:47:43;22.40;1.00
13682;DHT22;6913;49.892;7.936;2023-05-20T14:50:10;22.00;1.00
13682;DHT22;6913;49.892;7.936;2023-05-20T14:52:36;21.80;1.00
13682;DHT22;6913;49.892;7.936;2023-05-20T14:55:04;21.60;1.00
13682;DHT22;6913;49.892;7.936;2023-05-20T14:57:33;21.70;1.00
13682;DHT22;6913;49.892;7.936;2023-05-20T15:00:00;21.20;1.00
13682;DHT22;6913;49.892;7.936;2023-05-20T15:02:28;20.90;1.00
13682;DHT22;6913;49.892;7.936;2023-05-20T15:04:55;21.10;1.00
13682;DHT22;6913;49.892;7.936;2023-05-20T15:07:22;21.20;1.00
13682;DHT22;6913;49.892;7.936;2023-05-20T15:09:49;21.70;1.00
13682;DHT22;6913;49.892;7.936;2023-05-20T15:12:16;21.80;1.00
13682;DHT22;6913;49.892;7.936;2023-05-20T15:14:44;21.40;1.00
13682;DHT22;6913;49.892;7.936;2023-05-20T15:17:11;21.10;1.00
13682;DHT22;6913;49.892;7.936;2023-05-20T15:19:38;21.10;1.00
13682;DHT22;6913;49.892;7.936;2023-05-20T15:22:06;21.20;1.00
13682;DHT22;6913;49.892;7.936;2023-05-20T15:24:33;21.90;1.00
13682;DHT22;6913;49.892;7.936;2023-05-20T15:26:59;21.80;1.00
13682;DHT22;6913;49.892;7.936;2023-05-20T15:29:26;22.10;1.00
13682;DHT22;6913;49.892;7.936;2023-05-20T15:31:55;22.30;1.00
13682;DHT22;6913;49.892;7.936;2023-05-20T15:34:21;22.50;1.00
13682;DHT22;6913;49.892;7.936;2023-05-20T15:36:48;22.70;1.00
13682;DHT22;6913;49.892;7.936;2023-05-20T15:39:15;22.90;1.00
13682;DHT22;6913;49.892;7.936;2023-05-20T15:41:42;22.80;1.00
13682;DHT22;6913;49.892;7.936;2023-05-20T15:44:12;22.60;1.00
13682;DHT22;6913;49.892;7.936;2023-05-20T15:46:39;22.50;1.00
13682;DHT22;6913;49.892;7.936;2023-05-20T15:49:07;22.50;1.00
13682;DHT22;6913;49.892;7.936;2023-05-20T15:51:34;22.30;1.00
13682;DHT22;6913;49.892;7.936;2023-05-20T15:54:01;21.70;1.00
13682;DHT22;6913;49.892;7.936;2023-05-20T15:56:28;21.80;1.00
13682;DHT22;6913;49.892;7.936;2023-05-20T15:58:55;22.10;1.00